createdAt,value
2023-12-05T00:02:50.790Z,12.40
2023-12-05T00:06:02.656Z,12.25
2023-12-05T00:08:56.794Z,12.02
2023-12-05T00:12:05.897Z,11.78
2023-12-05T00:15:05.735Z,12.19
2023-12-05T00:18:00.879Z,12.18
2023-12-05T00:20:58.126Z,12.26
2023-12-05T00:24:17.973Z,12.33
2023-12-05T00:27:14.305Z,12.09
2023-12-05T00:30:08.959Z,12.17
2023-12-05T00:33:03.146Z,12.30
2023-12-05T00:35:57.676Z,12.11
2023-12-05T00:39:03.160Z,12.44
2023-12-05T00:42:00.185Z,12.50
2023-12-05T00:45:08.441Z,12.31
2023-12-05T00:48:22.348Z,12.44
2023-12-05T00:51:14.309Z,12.26
2023-12-05T00:54:16.581Z,12.33
2023-12-05T00:57:30.208Z,12.51
2023-12-05T01:00:28.261Z,12.28
2023-12-05T01:03:56.694Z,12.56
2023-12-05T01:07:15.139Z,12.39
2023-12-05T01:10:12.358Z,12.34
2023-12-05T01:13:08.787Z,12.16
2023-12-05T01:15:59.841Z,12.30
2023-12-05T01:19:02.546Z,11.96
2023-12-05T01:22:03.499Z,11.81
2023-12-05T01:25:04.563Z,11.75
2023-12-05T01:28:03.064Z,11.92
2023-12-05T01:31:00.760Z,12.01
2023-12-05T01:34:00.037Z,11.74
2023-12-05T01:37:06.275Z,11.90
2023-12-05T01:40:08.649Z,11.91
2023-12-05T01:43:01.453Z,12.00
2023-12-05T01:45:58.319Z,11.98
2023-12-05T01:48:56.045Z,11.64
2023-12-05T01:51:49.469Z,11.97
2023-12-05T01:54:41.962Z,11.96
2023-12-05T01:57:52.372Z,11.96
2023-12-05T02:00:47.987Z,12.45
2023-12-05T02:03:40.216Z,12.48
2023-12-05T02:15:36.245Z,12.25
2023-12-05T02:18:33.211Z,12.61
2023-12-05T02:21:32.009Z,12.64
2023-12-05T02:24:56.251Z,12.40
2023-12-05T02:28:01.685Z,12.45
2023-12-05T02:31:07.341Z,12.36
2023-12-05T02:34:02.187Z,12.00
2023-12-05T02:37:09.674Z,11.92
2023-12-05T02:40:12.986Z,12.25
2023-12-05T02:43:16.153Z,12.28
2023-12-05T02:46:12.734Z,12.17
2023-12-05T02:49:10.883Z,11.97
2023-12-05T02:52:05.769Z,12.02
2023-12-05T02:54:57.487Z,11.51
2023-12-05T02:57:49.448Z,11.33
2023-12-05T03:00:55.384Z,11.44
2023-12-05T03:04:00.733Z,11.32
2023-12-05T03:07:00.579Z,12.14
2023-12-05T03:09:54.659Z,11.94
2023-12-05T03:12:46.462Z,12.16
2023-12-05T03:16:02.615Z,11.92
2023-12-05T03:19:06.248Z,11.41
2023-12-05T03:21:56.848Z,11.30
2023-12-05T03:24:50.531Z,11.69
2023-12-05T03:27:50.570Z,11.46
2023-12-05T03:30:49.767Z,11.75
2023-12-05T03:33:54.624Z,12.24
2023-12-05T03:36:48.055Z,12.05
2023-12-05T03:39:41.942Z,12.21
2023-12-05T03:42:32.992Z,12.14
2023-12-05T03:45:30.659Z,12.29
2023-12-05T03:48:26.512Z,11.66
2023-12-05T03:51:20.492Z,12.18
2023-12-05T03:54:14.330Z,12.06
2023-12-05T03:57:04.669Z,11.98
2023-12-05T03:59:55.125Z,12.17
2023-12-05T04:02:48.736Z,12.03
2023-12-05T04:05:40.887Z,11.74
2023-12-05T04:08:34.869Z,11.89
2023-12-05T04:11:52.554Z,11.95
2023-12-05T04:14:43.053Z,11.90
2023-12-05T04:17:35.930Z,12.00
2023-12-05T04:20:29.614Z,12.08
2023-12-05T04:23:28.365Z,12.12
2023-12-05T04:26:20.489Z,11.79
2023-12-05T04:29:15.936Z,11.73
2023-12-05T04:32:04.337Z,11.86
2023-12-05T04:34:52.001Z,11.99
2023-12-05T04:37:41.349Z,11.76
2023-12-05T04:40:29.128Z,12.07
2023-12-05T04:43:17.654Z,11.97
2023-12-05T04:46:07.472Z,11.89
2023-12-05T04:48:55.243Z,12.28
2023-12-05T04:51:45.146Z,12.32
2023-12-05T04:54:33.488Z,12.21
2023-12-05T04:57:21.752Z,12.52
2023-12-05T05:00:14.526Z,11.71
2023-12-05T05:03:04.109Z,12.31
2023-12-05T05:05:52.232Z,12.42
2023-12-05T05:08:39.953Z,12.03
2023-12-05T05:11:28.339Z,12.25
2023-12-05T05:14:17.454Z,12.22
2023-12-05T05:17:06.027Z,12.40
2023-12-05T05:19:55.807Z,12.08
2023-12-05T05:22:46.835Z,12.47
2023-12-05T05:25:41.107Z,12.16
2023-12-05T05:28:30.988Z,13.13
2023-12-05T05:31:28.223Z,12.53
2023-12-05T05:34:19.942Z,13.25
2023-12-05T05:37:15.613Z,12.93
2023-12-05T05:40:10.075Z,12.78
2023-12-05T05:43:06.123Z,13.23
2023-12-05T05:45:56.488Z,12.77
2023-12-05T05:48:45.998Z,13.03
2023-12-05T05:51:41.374Z,13.06
2023-12-05T05:54:37.547Z,13.03
2023-12-05T05:57:29.625Z,13.05
2023-12-05T06:00:21.882Z,13.02
2023-12-05T06:03:23.238Z,13.26
2023-12-05T06:06:16.595Z,13.44
2023-12-05T06:09:08.801Z,13.44
2023-12-05T06:12:02.090Z,13.34
2023-12-05T06:14:56.151Z,13.46
2023-12-05T06:17:46.808Z,13.23
2023-12-05T06:20:39.302Z,13.50
2023-12-05T06:23:28.630Z,13.45
2023-12-05T06:26:22.289Z,13.39
2023-12-05T06:29:12.999Z,13.69
2023-12-05T06:32:03.262Z,12.90
2023-12-05T06:34:51.261Z,13.13
2023-12-05T06:37:39.460Z,13.56
2023-12-05T06:40:28.780Z,13.56
2023-12-05T06:43:23.488Z,13.12
2023-12-05T06:46:16.983Z,12.46
2023-12-05T06:49:08.032Z,12.97
2023-12-05T06:52:02.825Z,12.45
2023-12-05T06:54:55.712Z,12.25
2023-12-05T06:57:45.216Z,13.06
2023-12-05T07:00:42.130Z,13.20
2023-12-05T07:03:40.425Z,13.18
2023-12-05T07:06:32.580Z,13.17
2023-12-05T07:09:23.180Z,12.99
2023-12-05T07:12:16.976Z,13.19
2023-12-05T07:15:17.638Z,12.89
2023-12-05T07:18:07.213Z,13.23
2023-12-05T07:21:00.603Z,13.09
2023-12-05T07:24:00.742Z,13.36
2023-12-05T07:26:54.075Z,12.80
2023-12-05T07:29:43.752Z,12.52
2023-12-05T07:32:32.798Z,12.48
2023-12-05T07:35:22.332Z,13.26
2023-12-05T07:38:12.951Z,12.27
2023-12-05T07:41:01.437Z,12.02
2023-12-05T07:43:55.860Z,11.94
2023-12-05T07:46:50.744Z,11.49
2023-12-05T07:49:39.877Z,10.48
2023-12-05T07:52:36.275Z,11.94
2023-12-05T07:55:30.416Z,12.63
2023-12-05T07:58:25.495Z,12.84
2023-12-05T08:01:19.819Z,12.60
2023-12-05T08:04:24.996Z,12.28
2023-12-05T08:07:17.039Z,12.07
2023-12-05T08:10:11.632Z,12.29
2023-12-05T08:13:05.556Z,12.32
2023-12-05T08:19:00.486Z,11.16
2023-12-05T08:21:52.313Z,11.21
2023-12-05T08:24:41.333Z,11.56
2023-12-05T08:27:32.242Z,11.41
2023-12-05T08:30:23.609Z,12.02
2023-12-05T08:33:12.515Z,12.20
2023-12-05T08:36:04.741Z,12.38
2023-12-05T08:39:05.452Z,11.79
2023-12-05T08:41:56.584Z,11.25
2023-12-05T08:44:47.859Z,12.80
2023-12-05T08:47:43.098Z,13.54
2023-12-05T08:50:40.722Z,14.01
2023-12-05T08:53:31.870Z,13.13
2023-12-05T08:56:23.920Z,13.40
2023-12-05T08:59:14.647Z,13.82
2023-12-05T09:02:08.921Z,12.85
2023-12-05T09:04:59.891Z,13.21
2023-12-05T09:07:50.891Z,13.74
2023-12-05T09:10:40.190Z,13.79
2023-12-05T09:13:28.690Z,14.03
2023-12-05T09:16:25.535Z,13.52
2023-12-05T09:19:16.690Z,13.89
2023-12-05T09:22:06.567Z,13.66
2023-12-05T09:24:54.246Z,13.61
2023-12-05T09:27:41.845Z,13.85
2023-12-05T09:30:30.047Z,14.04
2023-12-05T09:33:17.956Z,13.53
2023-12-05T09:36:06.032Z,13.90
2023-12-05T09:38:54.934Z,14.24
2023-12-05T09:41:48.955Z,14.18
2023-12-05T09:44:36.968Z,13.61
2023-12-05T09:47:26.732Z,13.64
2023-12-05T09:50:15.275Z,14.14
2023-12-05T09:53:06.653Z,14.72
2023-12-05T09:55:55.599Z,14.87
2023-12-05T09:58:45.891Z,13.93
2023-12-05T10:01:37.100Z,14.22
2023-12-05T10:04:25.742Z,14.40
2023-12-05T10:07:14.539Z,14.15
2023-12-05T10:10:05.245Z,14.03
2023-12-05T10:12:53.841Z,13.85
2023-12-05T10:15:42.416Z,15.17
2023-12-05T10:18:30.305Z,14.46
2023-12-05T10:21:17.624Z,15.24
2023-12-05T10:24:08.276Z,15.29
2023-12-05T10:26:59.845Z,15.35
2023-12-05T10:29:47.992Z,15.38
2023-12-05T10:32:36.204Z,14.82
2023-12-05T10:35:31.050Z,14.88
2023-12-05T10:38:20.189Z,14.57
2023-12-05T10:41:08.362Z,15.17
2023-12-05T10:43:57.601Z,15.01
2023-12-05T10:46:46.328Z,14.67
2023-12-05T10:49:36.180Z,14.81
2023-12-05T10:52:23.766Z,14.19
2023-12-05T10:55:13.780Z,15.04
2023-12-05T10:58:01.413Z,15.28
2023-12-05T11:00:50.608Z,14.24
2023-12-05T11:03:38.997Z,15.07
2023-12-05T11:06:27.006Z,15.35
2023-12-05T11:09:14.206Z,15.29
2023-12-05T11:12:06.775Z,15.37
2023-12-05T11:14:57.685Z,15.17
2023-12-05T11:17:51.628Z,15.56
2023-12-05T11:20:59.971Z,15.81
2023-12-05T11:24:09.299Z,15.41
2023-12-05T11:27:09.942Z,14.95
2023-12-05T11:30:17.820Z,14.90
2023-12-05T11:33:14.058Z,15.25
2023-12-05T11:36:14.210Z,15.32
2023-12-05T11:39:02.031Z,15.34
2023-12-05T11:42:30.588Z,15.25
2023-12-05T11:45:24.933Z,15.78
2023-12-05T11:48:13.429Z,15.74
2023-12-05T11:50:59.984Z,15.19
2023-12-05T11:53:51.818Z,14.94
2023-12-05T11:56:38.872Z,15.17
2023-12-05T11:59:25.995Z,15.65
2023-12-05T12:02:18.734Z,15.33
2023-12-05T12:05:07.660Z,15.38
2023-12-05T12:07:58.298Z,15.36
2023-12-05T12:10:47.002Z,15.65
2023-12-05T12:13:33.688Z,15.80
2023-12-05T12:16:22.346Z,16.20
2023-12-05T12:19:13.195Z,15.84
2023-12-05T12:22:10.172Z,15.07
2023-12-05T12:25:11.245Z,15.34
2023-12-05T12:28:00.600Z,16.07
2023-12-05T12:30:48.706Z,15.97
2023-12-05T12:33:40.128Z,15.88
2023-12-05T12:36:27.653Z,15.78
2023-12-05T12:39:16.803Z,14.61
2023-12-05T12:42:04.164Z,14.97
2023-12-05T12:44:56.019Z,15.02
2023-12-05T12:47:44.349Z,15.29
2023-12-05T12:50:33.567Z,15.29
2023-12-05T12:53:20.689Z,15.72
2023-12-05T12:56:11.153Z,15.25
2023-12-05T12:59:00.851Z,15.13
2023-12-05T13:01:50.649Z,14.75
2023-12-05T13:04:38.523Z,15.24
2023-12-05T13:07:26.799Z,14.30
2023-12-05T13:10:14.330Z,14.51
2023-12-05T13:13:05.911Z,14.71
2023-12-05T13:15:53.295Z,14.82
2023-12-05T13:18:45.987Z,15.04
2023-12-05T13:21:34.840Z,14.76
2023-12-05T13:24:22.663Z,14.48
2023-12-05T13:27:10.484Z,14.81
2023-12-05T13:29:59.299Z,14.98
2023-12-05T13:32:46.872Z,14.35
2023-12-05T13:35:35.053Z,14.78
2023-12-05T13:38:22.648Z,14.40
2023-12-05T13:41:10.100Z,14.46
2023-12-05T13:43:56.974Z,14.82
2023-12-05T13:46:44.019Z,14.72
2023-12-05T13:49:30.872Z,14.98
2023-12-05T13:52:19.717Z,14.89
2023-12-05T13:55:07.679Z,14.43
2023-12-05T13:57:54.928Z,14.11
2023-12-05T14:00:41.949Z,14.10
2023-12-05T14:03:28.465Z,14.10
2023-12-05T14:06:15.279Z,14.64
2023-12-05T14:09:04.012Z,14.75
2023-12-05T14:11:50.895Z,14.41
2023-12-05T14:14:37.828Z,13.76
2023-12-05T14:17:24.781Z,13.27
2023-12-05T14:20:11.994Z,13.73
2023-12-05T14:22:58.911Z,14.21
2023-12-05T14:25:47.300Z,14.35
2023-12-05T14:28:34.124Z,13.76
2023-12-05T14:31:20.955Z,14.16
2023-12-05T14:34:09.507Z,14.67
2023-12-05T14:36:56.141Z,14.81
2023-12-05T14:39:45.243Z,14.63
2023-12-05T14:42:36.634Z,14.69
2023-12-05T14:45:26.491Z,14.06
2023-12-05T14:48:15.244Z,13.18
2023-12-05T14:51:01.963Z,13.61
2023-12-05T14:53:48.661Z,13.39
2023-12-05T14:56:35.537Z,14.09
2023-12-05T14:59:23.911Z,14.31
2023-12-05T15:02:10.825Z,14.22
2023-12-05T15:04:58.075Z,14.38
2023-12-05T15:07:45.238Z,13.96
2023-12-05T15:10:32.339Z,14.01
2023-12-05T15:13:19.124Z,13.51
2023-12-05T15:16:08.683Z,13.85
2023-12-05T15:18:55.499Z,14.48
2023-12-05T15:21:42.192Z,14.78
2023-12-05T15:24:29.166Z,14.60
2023-12-05T15:27:16.176Z,14.78
2023-12-05T15:30:04.302Z,14.78
2023-12-05T15:32:54.587Z,14.57
2023-12-05T15:35:41.432Z,14.61
2023-12-05T15:38:29.110Z,13.98
2023-12-05T15:41:17.034Z,14.30
2023-12-05T15:44:04.565Z,13.42
2023-12-05T15:46:51.236Z,13.87
2023-12-05T15:49:39.542Z,14.04
2023-12-05T15:52:26.208Z,13.96
2023-12-05T15:55:13.071Z,13.40
2023-12-05T15:58:00.192Z,13.48
2023-12-05T16:00:58.617Z,14.08
2023-12-05T16:03:47.807Z,14.01
2023-12-05T16:06:35.783Z,13.87
2023-12-05T16:09:24.760Z,13.68
2023-12-05T16:12:11.387Z,13.89
2023-12-05T16:14:58.249Z,12.75
2023-12-05T16:17:45.196Z,13.76
2023-12-05T16:20:32.004Z,14.05
2023-12-05T16:23:20.933Z,14.09
2023-12-05T16:26:08.782Z,14.09
2023-12-05T16:28:55.747Z,13.58
2023-12-05T16:31:42.657Z,13.77
2023-12-05T16:34:29.623Z,13.99
2023-12-05T16:37:17.381Z,14.04
2023-12-05T16:40:05.837Z,14.00
2023-12-05T16:42:52.651Z,13.87
2023-12-05T16:45:39.647Z,13.67
2023-12-05T16:48:26.484Z,13.57
2023-12-05T16:51:13.151Z,13.29
2023-12-05T16:54:00.214Z,13.55
2023-12-05T16:56:48.817Z,13.42
2023-12-05T16:59:35.880Z,13.36
2023-12-05T17:02:22.592Z,12.97
2023-12-05T17:05:10.439Z,13.16
2023-12-05T17:07:57.371Z,13.71
2023-12-05T17:10:43.953Z,13.71
2023-12-05T17:13:32.066Z,13.37
2023-12-05T17:16:19.156Z,13.52
2023-12-05T17:19:05.920Z,13.11
2023-12-05T17:21:52.676Z,13.72
2023-12-05T17:24:39.617Z,14.15
2023-12-05T17:27:26.456Z,14.25
2023-12-05T17:30:15.279Z,14.34
2023-12-05T17:33:02.339Z,14.13
2023-12-05T17:35:49.199Z,13.84
2023-12-05T17:38:36.007Z,13.39
2023-12-05T17:41:22.885Z,13.78
2023-12-05T17:44:09.882Z,13.98
2023-12-05T17:46:58.427Z,14.05
2023-12-05T17:49:45.470Z,14.07
2023-12-05T17:52:32.343Z,14.11
2023-12-05T17:55:19.471Z,14.50
2023-12-05T17:58:06.438Z,14.39
2023-12-05T18:00:53.292Z,14.47
2023-12-05T18:03:41.533Z,13.81
2023-12-05T18:06:29.581Z,13.03
2023-12-05T18:09:18.034Z,13.75
2023-12-05T18:12:06.476Z,13.92
2023-12-05T18:14:54.268Z,14.21
2023-12-05T18:17:42.790Z,14.18
2023-12-05T18:20:38.955Z,14.05
2023-12-05T18:23:29.082Z,13.96
2023-12-05T18:26:17.741Z,13.88
2023-12-05T18:29:05.001Z,14.17
2023-12-05T18:31:51.923Z,14.27
2023-12-05T18:34:38.794Z,14.22
2023-12-05T18:37:27.011Z,14.05
2023-12-05T18:40:14.171Z,13.86
2023-12-05T18:43:01.104Z,14.07
2023-12-05T18:45:47.926Z,13.20
2023-12-05T18:48:35.171Z,14.50
2023-12-05T18:51:22.560Z,14.47
2023-12-05T18:54:11.469Z,14.59
2023-12-05T18:56:58.703Z,14.35
2023-12-05T18:59:45.432Z,14.61
2023-12-05T19:02:32.972Z,14.29
2023-12-05T19:05:20.571Z,14.23
2023-12-05T19:08:07.381Z,14.14
2023-12-05T19:10:55.455Z,14.09
2023-12-05T19:13:42.661Z,13.85
2023-12-05T19:16:29.316Z,14.45
2023-12-05T19:19:16.448Z,14.17
2023-12-05T19:22:04.945Z,14.28
2023-12-05T19:24:51.698Z,14.19
2023-12-05T19:27:40.550Z,14.32
2023-12-05T19:30:27.246Z,14.25
2023-12-05T19:33:14.027Z,14.53
2023-12-05T19:36:00.876Z,14.39
2023-12-05T19:38:47.738Z,14.64
2023-12-05T19:41:34.532Z,14.49
2023-12-05T19:44:22.813Z,14.53
2023-12-05T19:47:09.587Z,14.76
2023-12-05T19:49:56.583Z,14.46
2023-12-05T19:52:43.555Z,13.84
2023-12-05T19:55:30.467Z,13.97
2023-12-05T19:58:17.522Z,13.28
2023-12-05T20:01:05.810Z,14.06
2023-12-05T20:03:52.782Z,14.43
2023-12-05T20:06:39.747Z,14.56
2023-12-05T20:09:26.665Z,14.47
2023-12-05T20:12:13.542Z,14.41
2023-12-05T20:15:00.748Z,14.81
2023-12-05T20:17:49.216Z,14.56
2023-12-05T20:20:36.131Z,14.51
2023-12-05T20:23:24.008Z,13.82
2023-12-05T20:26:10.746Z,14.24
2023-12-05T20:28:57.477Z,14.25
2023-12-05T20:31:44.301Z,13.99
2023-12-05T20:34:33.063Z,14.41
2023-12-05T20:37:19.675Z,14.53
2023-12-05T20:40:07.110Z,14.91
2023-12-05T20:42:53.820Z,14.88
2023-12-05T20:45:42.609Z,14.35
2023-12-05T20:48:43.792Z,14.55
2023-12-05T20:51:44.980Z,14.80
2023-12-05T20:54:46.133Z,14.75
2023-12-05T20:57:46.987Z,13.75
2023-12-05T21:00:35.140Z,14.76
2023-12-05T21:03:22.077Z,14.65
2023-12-05T21:06:09.896Z,14.53
2023-12-05T21:09:11.299Z,14.57
2023-12-05T21:12:00.852Z,14.83
2023-12-05T21:14:47.531Z,14.63
2023-12-05T21:17:35.492Z,14.70
2023-12-05T21:20:23.344Z,14.37
2023-12-05T21:23:10.109Z,14.80
2023-12-05T21:25:58.460Z,14.63
2023-12-05T21:28:48.043Z,14.66
2023-12-05T21:31:36.238Z,14.58
2023-12-05T21:34:23.103Z,15.08
2023-12-05T21:37:09.984Z,14.88
2023-12-05T21:39:57.346Z,15.16
2023-12-05T21:42:45.641Z,14.90
2023-12-05T21:45:32.237Z,14.68
2023-12-05T21:48:19.327Z,14.57
2023-12-05T21:51:06.728Z,14.85
2023-12-05T21:53:53.321Z,14.51
2023-12-05T21:56:40.187Z,14.09
2023-12-05T21:59:28.336Z,14.96
2023-12-05T22:02:15.340Z,14.98
2023-12-05T22:05:02.336Z,15.05
2023-12-05T22:07:49.093Z,14.94
2023-12-05T22:10:36.130Z,15.09
2023-12-05T22:13:22.892Z,14.90
2023-12-05T22:16:11.478Z,14.49
2023-12-05T22:18:58.420Z,14.86
2023-12-05T22:21:45.850Z,14.50
2023-12-05T22:24:33.347Z,14.59
2023-12-05T22:27:20.473Z,14.78
2023-12-05T22:30:08.628Z,14.68
2023-12-05T22:32:56.547Z,14.71
2023-12-05T22:35:50.326Z,14.63
2023-12-05T22:38:40.107Z,14.75
2023-12-05T22:41:26.968Z,14.67
2023-12-05T22:44:13.814Z,14.67
2023-12-05T22:47:04.253Z,14.90
2023-12-05T22:49:52.743Z,14.61
2023-12-05T22:52:39.598Z,14.81
2023-12-05T22:55:26.536Z,14.58
2023-12-05T22:58:19.725Z,14.59
2023-12-05T23:01:10.003Z,14.93
2023-12-05T23:03:57.113Z,14.57
2023-12-05T23:06:45.284Z,14.61
2023-12-05T23:09:32.079Z,14.44
2023-12-05T23:12:19.001Z,15.03
2023-12-05T23:15:06.858Z,14.70
2023-12-05T23:17:53.756Z,15.03
2023-12-05T23:20:43.750Z,15.07
2023-12-05T23:23:37.289Z,14.95
2023-12-05T23:26:25.737Z,14.44
2023-12-05T23:29:13.808Z,15.03
2023-12-05T23:32:00.620Z,15.00
2023-12-05T23:34:47.489Z,15.09
2023-12-05T23:37:34.559Z,15.29
2023-12-05T23:40:22.741Z,15.02
2023-12-05T23:43:09.712Z,14.78
2023-12-05T23:45:56.396Z,15.14
2023-12-05T23:48:43.352Z,15.14
2023-12-05T23:51:31.107Z,14.90
2023-12-05T23:54:17.983Z,15.06
2023-12-05T23:57:08.775Z,15.15
2023-12-05T23:59:57.251Z,15.07
